createdAt,value
2023-11-17T00:00:07.909Z,101882.80
2023-11-17T00:02:37.583Z,101887.52
2023-11-17T00:05:06.193Z,101884.95
2023-11-17T00:07:33.975Z,101889.32
2023-11-17T00:10:02.157Z,101885.52
2023-11-17T00:12:29.907Z,101885.01
2023-11-17T00:14:57.781Z,101886.23
2023-11-17T00:17:25.972Z,101889.73
2023-11-17T00:19:53.615Z,101890.45
2023-11-17T00:22:21.971Z,101899.67
2023-11-17T00:24:49.892Z,101900.91
2023-11-17T00:27:18.339Z,101905.45
2023-11-17T00:29:46.295Z,101907.36
2023-11-17T00:32:13.957Z,101909.82
2023-11-17T00:34:41.786Z,101911.73
2023-11-17T00:37:11.562Z,101917.14
2023-11-17T00:39:39.526Z,101918.89
2023-11-17T00:42:09.837Z,101911.61
2023-11-17T00:44:37.591Z,101908.84
2023-11-17T00:47:06.510Z,101910.74
2023-11-17T00:49:35.604Z,101914.39
2023-11-17T00:52:06.882Z,101913.39
2023-11-17T00:54:44.105Z,101916.69
2023-11-17T00:57:12.877Z,101926.27
2023-11-17T00:59:40.680Z,101924.39
2023-11-17T01:02:08.481Z,101919.20
2023-11-17T01:04:36.167Z,101921.30
2023-11-17T01:07:04.013Z,101917.68
2023-11-17T01:09:31.729Z,101911.95
2023-11-17T01:11:59.476Z,101909.19
2023-11-17T01:14:27.468Z,101911.12
2023-11-17T01:16:55.238Z,101907.67
2023-11-17T01:19:23.436Z,101903.73
2023-11-17T01:21:51.192Z,101897.33
2023-11-17T01:24:19.645Z,101892.65
2023-11-17T01:26:48.227Z,101888.86
2023-11-17T01:29:15.869Z,101885.05
2023-11-17T01:31:43.619Z,101892.34
2023-11-17T01:34:11.341Z,101899.64
2023-11-17T01:36:39.184Z,101904.67
2023-11-17T01:39:09.694Z,101902.07
2023-11-17T01:41:37.556Z,101891.31
2023-11-17T01:44:05.452Z,101890.45
2023-11-17T01:46:33.288Z,101894.80
2023-11-17T01:49:01.271Z,101894.45
2023-11-17T01:51:28.925Z,101888.75
2023-11-17T01:53:56.587Z,101880.94
2023-11-17T01:56:25.639Z,101875.05
2023-11-17T01:58:53.248Z,101865.37
2023-11-17T02:01:21.369Z,101859.47
2023-11-17T02:03:49.966Z,101860.00
2023-11-17T02:06:31.286Z,101864.33
2023-11-17T02:09:26.174Z,101858.61
2023-11-17T02:12:20.254Z,101848.55
2023-11-17T02:14:48.849Z,101839.54
2023-11-17T02:17:17.188Z,101836.41
2023-11-17T02:19:45.283Z,101831.05
2023-11-17T02:22:15.829Z,101830.70
2023-11-17T02:24:58.667Z,101832.27
2023-11-17T02:27:38.898Z,101829.16
2023-11-17T02:30:07.218Z,101827.26
2023-11-17T02:32:40.218Z,101824.48
2023-11-17T02:35:09.953Z,101824.67
2023-11-17T02:37:40.168Z,101820.68
2023-11-17T02:40:20.415Z,101808.54
2023-11-17T02:42:52.903Z,101806.45
2023-11-17T02:45:26.902Z,101799.34
2023-11-17T02:47:57.709Z,101804.01
2023-11-17T02:50:40.465Z,101806.59
2023-11-17T02:53:19.033Z,101807.11
2023-11-17T02:55:47.063Z,101810.23
2023-11-17T02:58:16.910Z,101809.89
2023-11-17T03:00:45.357Z,101809.73
2023-11-17T03:03:13.056Z,101809.73
2023-11-17T03:05:40.869Z,101809.21
2023-11-17T03:08:08.960Z,101802.10
2023-11-17T03:10:38.201Z,101802.29
2023-11-17T03:13:05.820Z,101800.38
2023-11-17T03:15:33.566Z,101801.77
2023-11-17T03:18:01.508Z,101805.38
2023-11-17T03:20:29.499Z,101804.35
2023-11-17T03:23:01.840Z,101809.20
2023-11-17T03:25:30.434Z,101809.36
2023-11-17T03:27:58.241Z,101804.35
2023-11-17T03:30:26.198Z,101800.20
2023-11-17T03:32:56.866Z,101806.27
2023-11-17T03:35:25.113Z,101802.63
2023-11-17T03:37:53.379Z,101802.63
2023-11-17T03:40:21.104Z,101797.45
2023-11-17T03:42:48.924Z,101797.94
2023-11-17T03:45:17.109Z,101793.96
2023-11-17T03:47:46.771Z,101794.48
2023-11-17T03:50:15.548Z,101793.42
2023-11-17T03:52:43.459Z,101789.61
2023-11-17T03:55:13.001Z,101785.61
2023-11-17T03:57:41.019Z,101781.27
2023-11-17T04:00:11.646Z,101779.20
2023-11-17T04:02:42.201Z,101778.52
2023-11-17T04:05:15.042Z,101772.45
2023-11-17T04:07:46.396Z,101772.98
2023-11-17T04:10:14.316Z,101770.20
2023-11-17T04:12:42.021Z,101765.68
2023-11-17T04:15:13.941Z,101759.96
2023-11-17T04:17:43.263Z,101749.70
2023-11-17T04:20:16.142Z,101748.84
2023-11-17T04:22:44.076Z,101754.02
2023-11-17T04:25:11.897Z,101752.96
2023-11-17T04:27:39.763Z,101752.25
2023-11-17T04:30:08.768Z,101753.44
2023-11-17T04:32:36.830Z,101755.15
2023-11-17T04:35:05.318Z,101750.95
2023-11-17T04:37:33.023Z,101753.54
2023-11-17T04:40:03.258Z,101749.70
2023-11-17T04:42:31.500Z,101743.58
2023-11-17T04:44:59.465Z,101731.41
2023-11-17T04:47:27.337Z,101732.94
2023-11-17T04:49:55.075Z,101748.49
2023-11-17T04:52:22.894Z,101759.57
2023-11-17T04:54:50.467Z,101758.67
2023-11-17T04:57:18.879Z,101755.70
2023-11-17T04:59:50.975Z,101756.89
2023-11-17T05:02:18.763Z,101768.34
2023-11-17T05:04:46.500Z,101782.04
2023-11-17T05:07:14.079Z,101780.30
2023-11-17T05:09:43.810Z,101778.23
2023-11-17T05:12:12.211Z,101780.48
2023-11-17T05:14:39.884Z,101789.69
2023-11-17T05:17:11.062Z,101799.40
2023-11-17T05:19:38.829Z,101800.61
2023-11-17T05:22:08.348Z,101797.82
2023-11-17T05:24:36.360Z,101802.15
2023-11-17T05:27:04.122Z,101812.21
2023-11-17T05:29:31.785Z,101811.98
2023-11-17T05:31:59.506Z,101814.19
2023-11-17T05:34:27.365Z,101822.34
2023-11-17T05:36:55.498Z,101827.91
2023-11-17T05:39:23.142Z,101827.91
2023-11-17T05:41:50.803Z,101822.36
2023-11-17T05:44:18.463Z,101818.54
2023-11-17T05:46:46.379Z,101814.20
2023-11-17T05:49:14.480Z,101813.83
2023-11-17T05:51:42.268Z,101813.65
2023-11-17T05:54:09.929Z,101814.84
2023-11-17T05:56:37.599Z,101809.77
2023-11-17T05:59:11.108Z,101817.02
2023-11-17T06:01:42.480Z,101826.92
2023-11-17T06:04:13.320Z,101832.77
2023-11-17T06:06:41.137Z,101830.49
2023-11-17T06:09:09.116Z,101828.55
2023-11-17T06:11:41.503Z,101826.45
2023-11-17T06:14:09.569Z,101829.40
2023-11-17T06:16:37.332Z,101825.56
2023-11-17T06:19:05.151Z,101823.63
2023-11-17T06:21:33.783Z,101823.41
2023-11-17T06:24:01.528Z,101826.86
2023-11-17T06:26:32.113Z,101832.73
2023-11-17T06:29:02.722Z,101830.59
2023-11-17T06:31:30.956Z,101826.38
2023-11-17T06:33:58.849Z,101824.08
2023-11-17T06:36:27.103Z,101820.90
2023-11-17T06:38:54.967Z,101819.27
2023-11-17T06:41:22.625Z,101806.33
2023-11-17T06:43:55.833Z,101800.50
2023-11-17T06:46:25.757Z,101786.23
2023-11-17T06:48:53.572Z,101779.77
2023-11-17T06:51:21.490Z,101779.23
2023-11-17T06:53:52.616Z,101788.97
2023-11-17T06:56:20.508Z,101790.67
2023-11-17T06:58:48.245Z,101790.48
2023-11-17T07:01:16.476Z,101790.48
2023-11-17T07:03:44.512Z,101793.79
2023-11-17T07:06:18.488Z,101791.52
2023-11-17T07:08:46.156Z,101788.39
2023-11-17T07:11:16.885Z,101787.00
2023-11-17T07:13:46.814Z,101784.02
2023-11-17T07:16:16.842Z,101778.61
2023-11-17T07:18:44.755Z,101770.73
2023-11-17T07:21:12.532Z,101763.55
2023-11-17T07:23:45.227Z,101770.06
2023-11-17T07:26:22.214Z,101763.56
2023-11-17T07:28:52.110Z,101765.95
2023-11-17T07:31:20.225Z,101765.85
2023-11-17T07:33:48.408Z,101761.79
2023-11-17T07:36:20.024Z,101761.05
2023-11-17T07:38:53.310Z,101757.74
2023-11-17T07:41:21.185Z,101755.48
2023-11-17T07:43:48.842Z,101754.24
2023-11-17T07:46:16.681Z,101757.54
2023-11-17T07:48:53.954Z,101760.98
2023-11-17T07:51:24.726Z,101755.66
2023-11-17T07:53:53.411Z,101762.35
2023-11-17T07:56:21.278Z,101767.27
2023-11-17T07:58:50.478Z,101764.27
2023-11-17T08:01:19.942Z,101763.64
2023-11-17T08:03:47.909Z,101759.00
2023-11-17T08:06:15.708Z,101754.95
2023-11-17T08:08:43.372Z,101756.98
2023-11-17T08:11:11.032Z,101752.56
2023-11-17T08:13:43.457Z,101758.91
2023-11-17T08:16:11.881Z,101767.35
2023-11-17T08:18:39.927Z,101773.20
2023-11-17T08:21:08.450Z,101774.20
2023-11-17T08:23:36.822Z,101777.23
2023-11-17T08:26:05.544Z,101779.60
2023-11-17T08:28:34.282Z,101776.73
2023-11-17T08:31:04.428Z,101774.33
2023-11-17T08:33:33.004Z,101765.17
2023-11-17T08:36:00.667Z,101750.02
2023-11-17T08:38:28.749Z,101749.67
2023-11-17T08:40:56.687Z,101746.84
2023-11-17T08:43:26.459Z,101741.90
2023-11-17T08:45:54.482Z,101739.09
2023-11-17T08:48:22.669Z,101728.95
2023-11-17T08:50:50.308Z,101716.16
2023-11-17T08:53:18.375Z,101721.75
2023-11-17T08:55:46.107Z,101717.76
2023-11-17T08:58:15.080Z,101714.34
2023-11-17T09:00:42.905Z,101714.70
2023-11-17T09:03:11.024Z,101710.86
2023-11-17T09:05:39.403Z,101706.08
2023-11-17T09:08:08.655Z,101706.41
2023-11-17T09:10:36.484Z,101705.08
2023-11-17T09:13:06.638Z,101704.77
2023-11-17T09:15:34.898Z,101703.24
2023-11-17T09:18:02.808Z,101701.41
2023-11-17T09:20:30.843Z,101696.66
2023-11-17T09:22:58.509Z,101697.86
2023-11-17T09:25:26.512Z,101693.84
2023-11-17T09:27:55.579Z,101683.88
2023-11-17T09:30:24.040Z,101682.54
2023-11-17T09:32:56.978Z,101675.02
2023-11-17T09:35:29.425Z,101667.94
2023-11-17T09:38:02.527Z,101666.98
2023-11-17T09:40:35.218Z,101662.33
2023-11-17T09:43:11.692Z,101658.67
2023-11-17T09:45:40.730Z,101657.75
2023-11-17T09:48:08.870Z,101658.80
2023-11-17T09:50:36.789Z,101658.83
2023-11-17T09:53:04.435Z,101651.86
2023-11-17T09:55:32.742Z,101645.56
2023-11-17T09:58:04.863Z,101644.26
2023-11-17T10:00:38.633Z,101640.34
2023-11-17T10:03:06.918Z,101637.16
2023-11-17T10:05:35.192Z,101635.73
2023-11-17T10:11:26.897Z,101618.16
2023-11-17T10:13:54.741Z,101616.30
2023-11-17T10:16:23.162Z,101615.59
2023-11-17T10:18:51.193Z,101615.79
2023-11-17T10:21:20.662Z,101615.38
2023-11-17T10:23:48.967Z,101608.64
2023-11-17T10:26:17.900Z,101611.46
2023-11-17T10:28:45.755Z,101610.70
2023-11-17T10:31:13.410Z,101610.23
2023-11-17T10:33:47.519Z,101609.90
2023-11-17T10:36:17.871Z,101609.77
2023-11-17T10:38:47.526Z,101602.77
2023-11-17T10:41:18.881Z,101596.36
2023-11-17T10:43:54.324Z,101593.02
2023-11-17T10:46:23.962Z,101581.67
2023-11-17T10:48:53.048Z,101575.59
2023-11-17T10:51:23.029Z,101574.02
2023-11-17T10:54:18.269Z,101566.88
2023-11-17T10:56:47.147Z,101561.67
2023-11-17T10:59:17.843Z,101554.59
2023-11-17T11:01:46.608Z,101553.62
2023-11-17T11:04:20.973Z,101547.34
2023-11-17T11:06:48.878Z,101543.52
2023-11-17T11:09:20.207Z,101534.58
2023-11-17T11:11:52.161Z,101532.49
2023-11-17T11:14:22.046Z,101530.60
2023-11-17T11:16:50.586Z,101526.59
2023-11-17T11:19:24.444Z,101524.34
2023-11-17T11:22:02.810Z,101524.53
2023-11-17T11:24:38.508Z,101526.41
2023-11-17T11:27:07.967Z,101528.00
2023-11-17T11:29:40.767Z,101522.19
2023-11-17T11:32:10.017Z,101521.45
2023-11-17T11:34:38.438Z,101521.80
2023-11-17T11:37:06.194Z,101520.67
2023-11-17T11:39:33.918Z,101525.90
2023-11-17T11:42:02.069Z,101532.02
2023-11-17T11:44:29.759Z,101526.77
2023-11-17T11:46:57.591Z,101524.01
2023-11-17T11:49:25.377Z,101522.60
2023-11-17T11:51:56.961Z,101526.14
2023-11-17T11:54:25.213Z,101526.88
2023-11-17T11:56:52.887Z,101529.77
2023-11-17T11:59:20.621Z,101527.83
2023-11-17T12:01:49.268Z,101524.75
2023-11-17T12:04:20.630Z,101518.27
2023-11-17T12:06:51.340Z,101509.67
2023-11-17T12:09:22.522Z,101512.92
2023-11-17T12:11:51.821Z,101513.77
2023-11-17T12:14:27.766Z,101511.86
2023-11-17T12:16:57.135Z,101512.95
2023-11-17T12:19:32.223Z,101508.74
2023-11-17T12:22:04.470Z,101507.33
2023-11-17T12:24:36.592Z,101504.01
2023-11-17T12:27:07.112Z,101497.17
2023-11-17T12:29:38.060Z,101488.44
2023-11-17T12:32:07.886Z,101486.23
2023-11-17T12:34:46.565Z,101484.51
2023-11-17T12:37:16.437Z,101480.39
2023-11-17T12:39:46.447Z,101481.77
2023-11-17T12:42:21.504Z,101472.31
2023-11-17T12:44:49.427Z,101472.64
2023-11-17T12:47:25.976Z,101468.10
2023-11-17T12:50:00.899Z,101464.59
2023-11-17T12:52:28.902Z,101457.98
2023-11-17T12:55:04.482Z,101458.00
2023-11-17T12:57:32.374Z,101458.66
2023-11-17T13:00:00.796Z,101458.23
2023-11-17T13:02:28.563Z,101450.46
2023-11-17T13:04:56.335Z,101447.84
2023-11-17T13:07:24.189Z,101442.85
2023-11-17T13:09:52.009Z,101438.59
2023-11-17T13:12:19.671Z,101444.33
2023-11-17T13:14:47.426Z,101445.98
2023-11-17T13:17:20.150Z,101441.36
2023-11-17T13:19:48.102Z,101442.33
2023-11-17T13:22:15.871Z,101446.56
2023-11-17T13:24:44.319Z,101443.98
2023-11-17T13:27:13.768Z,101443.60
2023-11-17T13:29:42.218Z,101441.13
2023-11-17T13:32:14.017Z,101438.84
2023-11-17T13:34:42.812Z,101429.36
2023-11-17T13:37:13.107Z,101431.92
2023-11-17T13:39:42.329Z,101428.05
2023-11-17T13:42:12.284Z,101427.52
2023-11-17T13:44:42.332Z,101425.09
2023-11-17T13:47:10.242Z,101424.56
2023-11-17T13:49:40.479Z,101419.95
2023-11-17T13:52:11.599Z,101418.02
2023-11-17T13:54:40.408Z,101420.16
2023-11-17T13:57:09.658Z,101415.05
2023-11-17T13:59:38.611Z,101416.63
2023-11-17T14:02:10.824Z,101414.08
2023-11-17T14:04:39.617Z,101422.13
2023-11-17T14:07:08.526Z,101415.92
2023-11-17T14:09:36.361Z,101413.52
2023-11-17T14:12:05.633Z,101408.81
2023-11-17T14:14:33.654Z,101413.86
2023-11-17T14:17:06.886Z,101410.79
2023-11-17T14:19:36.678Z,101403.59
2023-11-17T14:22:05.686Z,101400.23
2023-11-17T14:24:33.557Z,101398.01
2023-11-17T14:27:01.253Z,101398.17
2023-11-17T14:29:32.766Z,101396.42
2023-11-17T14:32:00.765Z,101393.25
2023-11-17T14:34:30.555Z,101382.89
2023-11-17T14:37:01.186Z,101378.83
2023-11-17T14:39:33.480Z,101373.55
2023-11-17T14:42:01.496Z,101371.20
2023-11-17T14:44:30.409Z,101370.48
2023-11-17T14:46:58.526Z,101366.24
2023-11-17T14:49:30.572Z,101366.02
2023-11-17T14:52:04.938Z,101366.00
2023-11-17T14:54:33.044Z,101365.41
2023-11-17T14:57:00.911Z,101357.13
2023-11-17T14:59:28.789Z,101353.70
2023-11-17T15:01:56.862Z,101358.36
2023-11-17T15:04:24.646Z,101356.90
2023-11-17T15:06:55.683Z,101356.63
2023-11-17T15:09:23.405Z,101356.36
2023-11-17T15:11:55.436Z,101359.29
2023-11-17T15:14:23.446Z,101361.64
2023-11-17T15:16:53.514Z,101360.55
2023-11-17T15:19:23.682Z,101361.01
2023-11-17T15:21:51.646Z,101365.48
2023-11-17T15:24:23.819Z,101361.73
2023-11-17T15:26:53.721Z,101359.38
2023-11-17T15:29:23.603Z,101359.65
2023-11-17T15:31:54.232Z,101359.60
2023-11-17T15:34:23.084Z,101360.73
2023-11-17T15:36:54.904Z,101357.46
2023-11-17T15:39:28.447Z,101351.98
2023-11-17T15:41:56.181Z,101346.48
2023-11-17T15:44:24.942Z,101344.83
2023-11-17T15:46:53.001Z,101347.91
2023-11-17T15:49:21.123Z,101352.07
2023-11-17T15:51:49.390Z,101350.59
2023-11-17T15:54:18.187Z,101354.75
2023-11-17T15:56:47.890Z,101358.38
2023-11-17T15:59:15.848Z,101360.82
2023-11-17T16:01:45.606Z,101359.36
2023-11-17T16:04:13.627Z,101355.33
2023-11-17T16:06:41.500Z,101356.55
2023-11-17T16:09:11.676Z,101356.86
2023-11-17T16:11:42.085Z,101358.27
2023-11-17T16:14:14.516Z,101356.83
2023-11-17T16:16:43.437Z,101351.14
2023-11-17T16:19:11.799Z,101351.41
2023-11-17T16:21:40.116Z,101343.98
2023-11-17T16:24:08.573Z,101344.26
2023-11-17T16:26:37.327Z,101345.61
2023-11-17T16:29:07.463Z,101344.14
2023-11-17T16:31:39.361Z,101340.11
2023-11-17T16:34:07.686Z,101339.37
2023-11-17T16:36:47.153Z,101329.81
2023-11-17T16:39:20.390Z,101329.76
2023-11-17T16:41:49.665Z,101326.61
2023-11-17T16:44:17.474Z,101323.46
2023-11-17T16:46:49.699Z,101323.29
2023-11-17T16:49:20.516Z,101321.55
2023-11-17T16:51:49.518Z,101324.55
2023-11-17T16:54:20.306Z,101325.61
2023-11-17T16:56:47.983Z,101322.73
2023-11-17T16:59:15.732Z,101329.00
2023-11-17T17:01:43.561Z,101323.00
2023-11-17T17:04:12.443Z,101323.98
2023-11-17T17:06:43.830Z,101314.42
2023-11-17T17:09:15.755Z,101313.83
2023-11-17T17:11:46.810Z,101314.00
2023-11-17T17:14:20.308Z,101309.61
2023-11-17T17:16:53.498Z,101311.48
2023-11-17T17:19:27.794Z,101310.83
2023-11-17T17:21:55.814Z,101308.20
2023-11-17T17:24:25.467Z,101310.33
2023-11-17T17:26:54.432Z,101304.39
2023-11-17T17:29:22.251Z,101301.52
2023-11-17T17:31:50.065Z,101297.00
2023-11-17T17:34:19.023Z,101290.08
2023-11-17T17:36:50.388Z,101277.11
2023-11-17T17:39:18.308Z,101266.39
2023-11-17T17:41:49.427Z,101254.30
2023-11-17T17:44:20.263Z,101251.23
2023-11-17T17:46:49.450Z,101259.36
2023-11-17T17:49:18.203Z,101259.33
2023-11-17T17:51:46.110Z,101265.60
2023-11-17T17:54:15.779Z,101261.77
2023-11-17T17:56:43.440Z,101258.38
2023-11-17T17:59:11.119Z,101255.31
2023-11-17T18:01:39.598Z,101249.13
2023-11-17T18:04:10.035Z,101254.04
2023-11-17T18:06:37.990Z,101253.35
2023-11-17T18:09:07.174Z,101248.72
2023-11-17T18:11:36.288Z,101250.77
2023-11-17T18:14:04.033Z,101242.27
2023-11-17T18:16:31.867Z,101238.85
2023-11-17T18:18:59.871Z,101241.58
2023-11-17T18:21:28.865Z,101242.80
2023-11-17T18:23:56.528Z,101243.31
2023-11-17T18:26:26.824Z,101237.70
2023-11-17T18:28:55.143Z,101234.69
2023-11-17T18:31:22.905Z,101230.48
2023-11-17T18:33:51.093Z,101226.27
2023-11-17T18:36:19.474Z,101225.39
2023-11-17T18:38:47.309Z,101219.98
2023-11-17T18:41:15.027Z,101210.53
2023-11-17T18:43:42.782Z,101214.09
2023-11-17T18:46:11.373Z,101208.14
2023-11-17T18:48:41.348Z,101196.18
2023-11-17T18:51:09.607Z,101189.55
2023-11-17T18:53:37.383Z,101184.44
2023-11-17T18:56:06.860Z,101184.61
2023-11-17T18:58:35.271Z,101185.45
2023-11-17T19:01:05.411Z,101187.16
2023-11-17T19:03:33.334Z,101178.81
2023-11-17T19:06:01.226Z,101173.41
2023-11-17T19:08:28.902Z,101172.75
2023-11-17T19:10:57.128Z,101172.63
2023-11-17T19:13:30.779Z,101172.30
2023-11-17T19:15:59.862Z,101170.44
2023-11-17T19:18:27.713Z,101167.92
2023-11-17T19:20:57.140Z,101164.66
2023-11-17T19:23:28.253Z,101171.55
2023-11-17T19:25:58.252Z,101167.42
2023-11-17T19:28:26.167Z,101163.30
2023-11-17T19:30:55.107Z,101165.43
2023-11-17T19:33:25.355Z,101164.97
2023-11-17T19:36:01.272Z,101161.77
2023-11-17T19:38:35.313Z,101160.80
2023-11-17T19:41:03.688Z,101164.79
2023-11-17T19:43:31.613Z,101160.49
2023-11-17T19:45:59.437Z,101160.09
2023-11-17T19:48:27.083Z,101160.36
2023-11-17T19:50:55.475Z,101160.60
2023-11-17T19:53:23.531Z,101165.80
2023-11-17T19:55:56.614Z,101162.69
2023-11-17T19:58:26.130Z,101173.59
2023-11-17T20:00:53.938Z,101169.27
2023-11-17T20:03:21.839Z,101161.73
2023-11-17T20:05:50.336Z,101162.02
2023-11-17T20:08:18.201Z,101163.52
2023-11-17T20:10:46.979Z,101162.52
2023-11-17T20:13:15.381Z,101163.66
2023-11-17T20:15:44.584Z,101158.67
2023-11-17T20:18:12.494Z,101156.29
2023-11-17T20:20:40.724Z,101155.39
2023-11-17T20:23:08.384Z,101159.29
2023-11-17T20:25:36.172Z,101157.88
2023-11-17T20:28:04.000Z,101153.75
2023-11-17T20:30:31.770Z,101152.18
2023-11-17T20:33:00.431Z,101154.64
2023-11-17T20:35:29.740Z,101149.58
2023-11-17T20:37:58.428Z,101148.78
2023-11-17T20:40:26.350Z,101148.02
2023-11-17T20:42:54.313Z,101148.61
2023-11-17T20:45:23.198Z,101145.84
2023-11-17T20:47:51.508Z,101150.02
2023-11-17T20:50:26.718Z,101148.25
2023-11-17T20:52:54.916Z,101147.68
2023-11-17T20:55:23.634Z,101149.35
2023-11-17T20:57:52.711Z,101144.95
2023-11-17T21:00:23.662Z,101150.23
2023-11-17T21:02:52.989Z,101147.30
2023-11-17T21:05:22.305Z,101142.61
2023-11-17T21:07:52.691Z,101144.41
2023-11-17T21:10:23.695Z,101140.73
2023-11-17T21:12:53.714Z,101139.96
2023-11-17T21:15:22.862Z,101134.85
2023-11-17T21:17:52.835Z,101136.74
2023-11-17T21:20:22.060Z,101134.79
2023-11-17T21:22:51.048Z,101129.88
2023-11-17T21:25:20.168Z,101131.66
2023-11-17T21:27:50.390Z,101133.59
2023-11-17T21:30:19.582Z,101135.02
2023-11-17T21:32:50.503Z,101133.48
2023-11-17T21:35:19.713Z,101134.89
2023-11-17T21:37:56.871Z,101130.93
2023-11-17T21:40:26.033Z,101128.89
2023-11-17T21:42:53.985Z,101125.48
2023-11-17T21:45:23.549Z,101124.30
2023-11-17T21:47:53.169Z,101121.77
2023-11-17T21:50:24.753Z,101121.33
2023-11-17T21:52:52.650Z,101119.61
2023-11-17T21:55:20.491Z,101111.38
2023-11-17T21:57:48.275Z,101106.71
2023-11-17T22:00:18.714Z,101110.66
2023-11-17T22:02:48.345Z,101107.91
2023-11-17T22:05:17.899Z,101104.95
2023-11-17T22:07:46.099Z,101102.04
2023-11-17T22:10:13.888Z,101096.31
2023-11-17T22:12:49.396Z,101095.87
2023-11-17T22:15:21.068Z,101093.98
2023-11-17T22:17:49.495Z,101096.59
2023-11-17T22:20:20.603Z,101090.58
2023-11-17T22:22:53.734Z,101088.45
2023-11-17T22:25:22.919Z,101086.19
2023-11-17T22:27:52.041Z,101082.16
2023-11-17T22:30:25.987Z,101078.83
2023-11-17T22:32:55.984Z,101076.17
2023-11-17T22:35:24.607Z,101073.53
2023-11-17T22:37:54.944Z,101074.10
2023-11-17T22:40:24.359Z,101070.60
2023-11-17T22:42:53.412Z,101065.15
2023-11-17T22:45:23.552Z,101061.79
2023-11-17T22:47:52.121Z,101057.59
2023-11-17T22:50:20.349Z,101051.06
2023-11-17T22:52:51.330Z,101046.53
2023-11-17T22:55:21.623Z,101048.48
2023-11-17T22:57:50.582Z,101044.11
2023-11-17T23:00:42.203Z,101044.73
2023-11-17T23:03:11.123Z,101044.65
2023-11-17T23:05:43.496Z,101041.06
2023-11-17T23:08:13.752Z,101041.05
2023-11-17T23:10:42.871Z,101038.73
2023-11-17T23:13:13.237Z,101042.39
2023-11-17T23:15:41.361Z,101043.70
2023-11-17T23:18:11.305Z,101045.97
2023-11-17T23:20:39.142Z,101045.17
2023-11-17T23:23:06.849Z,101047.61
2023-11-17T23:25:38.322Z,101041.70
2023-11-17T23:28:09.500Z,101035.39
2023-11-17T23:30:37.246Z,101031.05
2023-11-17T23:33:09.436Z,101033.55
2023-11-17T23:35:37.759Z,101020.71
2023-11-17T23:38:06.047Z,101015.19
2023-11-17T23:40:33.824Z,101027.09
2023-11-17T23:43:02.221Z,101020.66
2023-11-17T23:45:31.002Z,101013.72
2023-11-17T23:47:58.875Z,101020.30
2023-11-17T23:50:26.859Z,101011.89
2023-11-17T23:52:54.740Z,101014.63
2023-11-17T23:55:22.528Z,101008.36
2023-11-17T23:57:50.335Z,101001.22
